Time;durP1;ratioP1;P1;durP2;ratioP2;P2;SDS_P1;SDS_P2;PMS_P1;PMS_P2;Temp;Humidity;BMP_temperature;BMP_pressure;BME280_temperature;BME280_humidity;BME280_pressure;Samples;Min_cycle;Max_cycle;Signal;HPM_P1;HPM_P2
2021/06/21 00:01:36;;;;;;;;;5.67;5.67;;;;;23.24;62.81;99932.50;5090654;27;45767;-44
2021/06/21 00:04:01;;;;;;;;;6.67;6.67;;;;;23.23;63.13;99935.34;5083736;27;46946;-47
2021/06/21 00:06:27;;;;;;;;;8.33;7.00;;;;;23.22;63.40;99942.59;5084986;27;45760;-46
2021/06/21 00:08:52;;;;;;;;;6.00;6.00;;;;;23.21;63.33;99946.28;5095674;27;45416;-45
2021/06/21 00:11:18;;;;;;;;;4.33;4.33;;;;;23.20;63.25;99947.28;5080293;27;45689;-45
2021/06/21 00:13:44;;;;;;;;;6.00;6.00;;;;;23.18;62.97;99944.72;5081017;27;47498;-44
2021/06/21 00:16:10;;;;;;;;;5.00;5.00;;;;;23.17;62.91;99944.84;5088636;27;45340;-46
2021/06/21 00:18:36;;;;;;;;;7.00;7.00;;;;;23.17;63.76;99958.38;5090049;27;45451;-44
2021/06/21 00:21:02;;;;;;;;;7.67;6.33;;;;;23.16;63.55;99957.53;5096051;27;45516;-45
2021/06/21 00:23:27;;;;;;;;;7.33;7.00;;;;;23.16;63.33;99953.97;5087107;27;48192;-45
2021/06/21 00:25:53;;;;;;;;;7.33;7.33;;;;;23.16;63.21;99951.25;5099732;27;45377;-46
2021/06/21 00:28:19;;;;;;;;;8.00;8.00;;;;;23.14;63.23;99947.84;5100266;27;45840;-46
2021/06/21 00:30:45;;;;;;;;;6.67;6.67;;;;;23.14;63.46;99945.97;5095772;27;45392;-45
2021/06/21 00:33:12;;;;;;;;;5.00;5.00;;;;;23.12;63.21;99945.25;5086222;27;48322;-44
2021/06/21 00:35:38;;;;;;;;;6.00;6.00;;;;;23.11;64.10;99948.94;5084952;27;45259;-44
2021/06/21 00:38:07;;;;;;;;;8.00;7.00;;;;;23.10;63.83;99957.19;5095976;27;45376;-44
2021/06/21 00:40:34;;;;;;;;;7.33;7.00;;;;;23.09;64.03;99959.03;5084097;27;45362;-45
2021/06/21 00:43:00;;;;;;;;;5.33;5.33;;;;;23.07;63.69;99955.59;5092119;27;47241;-46
2021/06/21 00:45:26;;;;;;;;;6.00;6.00;;;;;23.05;64.10;99952.19;5087723;27;45317;-49
2021/06/21 00:47:53;;;;;;;;;7.00;7.00;;;;;23.03;64.13;99958.72;5091168;27;45266;-44
2021/06/21 00:50:20;;;;;;;;;8.00;8.00;;;;;22.99;64.02;99957.25;5084509;27;45443;-44
2021/06/21 00:52:45;;;;;;;;;7.00;7.00;;;;;22.97;64.41;99960.09;5091264;27;47294;-44
2021/06/21 00:55:12;;;;;;;;;8.00;8.00;;;;;22.97;64.02;99964.63;5084473;27;45555;-44
2021/06/21 00:57:39;;;;;;;;;9.00;9.00;;;;;22.97;64.12;99951.97;5077650;27;45659;-45
2021/06/21 01:00:08;;;;;;;;;10.00;8.00;;;;;22.97;64.22;99961.94;5084635;27;45629;-45
2021/06/21 01:02:34;;;;;;;;;7.00;6.00;;;;;22.94;64.17;99960.34;5093847;27;47682;-45
2021/06/21 01:05:00;;;;;;;;;5.33;5.33;;;;;22.90;64.24;99959.75;5085757;27;46027;-47
2021/06/21 01:07:25;;;;;;;;;6.67;6.67;;;;;22.89;64.28;99971.56;5092177;27;45630;-44
2021/06/21 01:09:53;;;;;;;;;6.00;5.67;;;;;22.90;63.91;99965.19;5082713;27;45357;-44
2021/06/21 01:12:23;;;;;;;;;6.00;6.00;;;;;22.91;63.93;99963.31;5096082;27;47362;-45
2021/06/21 01:14:56;;;;;;;;;7.67;7.00;;;;;22.92;64.30;99962.34;5089034;27;45581;-45
2021/06/21 01:17:32;;;;;;;;;8.00;8.00;;;;;22.95;64.50;99961.22;5088925;27;45722;-45
2021/06/21 01:20:16;;;;;;;;;7.00;7.00;;;;;22.99;64.23;99951.84;5088160;27;45490;-46
2021/06/21 01:23:18;;;;;;;;;5.67;5.67;;;;;22.98;64.05;99947.41;5094783;27;48584;-48
2021/06/21 01:25:53;;;;;;;;;9.33;9.00;;;;;22.94;64.42;99951.38;5088303;27;45842;-49
2021/06/21 01:28:38;;;;;;;;;8.67;8.67;;;;;22.93;64.10;99955.06;5097537;27;45452;-46
2021/06/21 01:31:12;;;;;;;;;7.00;7.00;;;;;22.86;64.62;99955.56;5086602;27;45827;-46
2021/06/21 01:33:39;;;;;;;;;7.00;7.00;;;;;22.80;64.08;99958.78;5095194;27;45475;-46
2021/06/21 01:36:07;;;;;;;;;8.33;8.33;;;;;22.78;64.65;99962.63;5088037;27;45522;-44
2021/06/21 01:38:39;;;;;;;;;10.33;8.67;;;;;22.77;64.77;99956.34;5114290;27;45458;-44
2021/06/21 01:41:07;;;;;;;;;7.00;7.00;;;;;22.75;64.56;99954.75;5086257;27;45552;-47
2021/06/21 01:43:44;;;;;;;;;7.00;7.00;;;;;22.77;64.96;99960.91;5098578;27;47320;-46
2021/06/21 01:46:14;;;;;;;;;9.33;9.33;;;;;22.74;64.65;99964.72;5094128;27;45410;-44
2021/06/21 01:48:48;;;;;;;;;9.00;9.00;;;;;22.77;64.83;99964.47;5087337;27;45375;-44
2021/06/21 01:51:15;;;;;;;;;9.75;9.75;;;;;22.75;64.99;99968.28;5090530;27;45333;-43
2021/06/21 01:53:42;;;;;;;;;10.25;9.75;;;;;22.75;65.23;99965.59;5093259;27;48533;-47
2021/06/21 01:56:16;;;;;;;;;9.67;9.67;;;;;22.79;65.15;99959.78;5091931;27;45822;-45
2021/06/21 01:58:43;;;;;;;;;11.00;11.00;;;;;22.83;65.02;99968.50;5082498;27;45385;-44
2021/06/21 02:01:17;;;;;;;;;11.00;11.00;;;;;22.86;64.78;99960.13;5088474;27;45598;-44
2021/06/21 02:03:48;;;;;;;;;14.00;12.67;;;;;22.89;64.96;99968.88;5087167;27;47171;-43
2021/06/21 02:06:15;;;;;;;;;14.75;14.25;;;;;22.90;64.36;99969.72;5088441;27;45457;-46
2021/06/21 02:08:44;;;;;;;;;14.25;13.25;;;;;22.86;64.75;99974.50;5098419;27;45442;-44
2021/06/21 02:11:11;;;;;;;;;14.00;13.50;;;;;22.87;64.74;99975.41;5099102;27;45360;-44
2021/06/21 02:13:37;;;;;;;;;14.00;14.00;;;;;22.88;64.85;99980.69;5081701;27;48165;-44
2021/06/21 02:16:04;;;;;;;;;13.00;12.50;;;;;22.92;64.93;99983.13;5079022;27;45845;-43
2021/06/21 02:18:31;;;;;;;;;14.25;13.75;;;;;22.93;64.29;99974.00;5087039;27;45561;-43
2021/06/21 02:20:58;;;;;;;;;12.00;12.00;;;;;22.93;64.13;99979.44;5083213;27;45646;-44
2021/06/21 02:23:24;;;;;;;;;12.50;12.50;;;;;22.93;64.05;99974.88;5093246;27;47274;-43
2021/06/21 02:25:52;;;;;;;;;11.67;9.33;;;;;22.94;63.74;99976.59;5090340;27;45942;-47
2021/06/21 02:28:20;;;;;;;;;7.67;7.67;;;;;22.93;63.30;99976.72;5092599;27;45486;-42
2021/06/21 02:30:48;;;;;;;;;8.33;8.33;;;;;22.90;63.67;99977.84;5089976;27;45314;-44
2021/06/21 02:33:16;;;;;;;;;11.00;9.00;;;;;22.88;63.30;99974.41;5083425;27;47524;-44
2021/06/21 02:35:46;;;;;;;;;7.00;6.00;;;;;22.85;63.19;99972.81;5097685;27;45396;-45
2021/06/21 02:38:12;;;;;;;;;6.67;6.67;;;;;22.82;62.93;99975.75;5086988;27;45424;-46
2021/06/21 02:40:38;;;;;;;;;5.33;5.33;;;;;22.78;62.79;99977.00;5097321;27;45808;-44
2021/06/21 02:43:04;;;;;;;;;6.00;6.00;;;;;22.75;62.70;99979.13;5097670;27;45676;-44
2021/06/21 02:45:30;;;;;;;;;6.00;6.00;;;;;22.73;62.74;99990.03;5091670;27;45424;-46
2021/06/21 02:47:56;;;;;;;;;4.67;4.67;;;;;22.71;63.18;99985.75;5105776;27;45449;-45
2021/06/21 02:50:23;;;;;;;;;4.00;4.00;;;;;22.70;62.23;99978.63;5083463;27;46382;-46
2021/06/21 02:53:08;;;;;;;;;5.75;5.75;;;;;22.68;62.68;99980.59;5097623;27;48193;-44
2021/06/21 02:56:01;;;;;;;;;5.00;4.00;;;;;22.65;62.09;99981.72;5086384;27;45553;-49
2021/06/21 02:58:30;;;;;;;;;5.33;4.67;;;;;22.61;62.50;99983.84;5078606;27;45689;-46
2021/06/21 03:01:00;;;;;;;;;4.00;4.00;;;;;22.61;62.84;99994.66;5083070;27;45569;-45
2021/06/21 03:03:33;;;;;;;;;4.00;4.00;;;;;22.61;62.40;99999.16;5099272;27;47573;-44
2021/06/21 03:06:01;;;;;;;;;5.67;5.67;;;;;22.60;62.09;100006.41;5080656;27;45654;-44
2021/06/21 03:08:28;;;;;;;;;3.00;3.00;;;;;22.58;61.69;100005.69;5089549;27;45407;-45
2021/06/21 03:10:56;;;;;;;;;4.33;4.33;;;;;22.55;61.88;100011.38;5087978;27;45509;-46
2021/06/21 03:13:22;;;;;;;;;3.33;3.33;;;;;22.53;61.86;100007.94;5092514;27;47162;-45
2021/06/21 03:15:51;;;;;;;;;4.00;4.00;;;;;22.52;61.61;100010.78;5097468;27;45262;-44
2021/06/21 03:18:20;;;;;;;;;4.00;4.00;;;;;22.51;62.16;100011.75;5086944;27;45565;-48
2021/06/21 03:20:50;;;;;;;;;4.33;4.33;;;;;22.49;62.13;100011.03;5089136;27;45621;-46
2021/06/21 03:23:16;;;;;;;;;5.00;5.00;;;;;22.49;61.94;100016.44;5092319;27;47402;-45
2021/06/21 03:25:41;;;;;;;;;5.00;5.00;;;;;22.45;61.43;100018.50;5092272;27;46214;-45
2021/06/21 03:28:12;;;;;;;;;4.67;4.67;;;;;22.44;61.54;100019.50;5085630;27;45456;-46
2021/06/21 03:30:50;;;;;;;;;6.00;5.00;;;;;22.43;61.77;100014.22;5096014;27;45381;-44
2021/06/21 03:33:16;;;;;;;;;5.00;5.00;;;;;22.42;61.49;100010.66;5080542;27;48102;-44
2021/06/21 03:35:42;;;;;;;;;3.67;3.67;;;;;22.40;61.81;100007.22;5083458;27;45458;-43
2021/06/21 03:38:14;;;;;;;;;4.00;4.00;;;;;22.40;61.39;100004.53;5095494;27;45866;-43
2021/06/21 03:40:43;;;;;;;;;5.33;5.33;;;;;22.40;61.41;100009.94;5099931;27;45246;-43
2021/06/21 03:43:19;;;;;;;;;4.00;4.00;;;;;22.39;61.98;100012.75;5099397;27;47150;-45
2021/06/21 03:45:45;;;;;;;;;5.00;5.00;;;;;22.39;61.86;100010.06;5094515;27;45587;-43
2021/06/21 03:48:11;;;;;;;;;5.00;5.00;;;;;22.38;61.71;100005.66;5092550;27;45373;-46
2021/06/21 03:50:37;;;;;;;;;5.00;5.00;;;;;22.37;61.59;100010.19;5092955;27;45647;-46
2021/06/21 03:53:04;;;;;;;;;6.00;6.00;;;;;22.35;61.89;100013.97;5089362;27;48256;-44
2021/06/21 03:55:30;;;;;;;;;6.00;6.00;;;;;22.34;61.42;100010.41;5096150;27;45468;-47
2021/06/21 03:57:56;;;;;;;;;5.00;5.00;;;;;22.31;61.45;100014.25;5092704;27;45369;-45
2021/06/21 04:00:24;;;;;;;;;5.33;5.00;;;;;22.29;61.54;100015.34;5099022;27;45459;-47
2021/06/21 04:02:49;;;;;;;;;6.00;6.00;;;;;22.29;61.70;100012.66;5096138;27;48054;-46
2021/06/21 04:05:16;;;;;;;;;5.33;5.33;;;;;22.28;61.75;100019.91;5084896;27;45392;-47
2021/06/21 04:07:42;;;;;;;;;5.00;5.00;;;;;22.27;62.09;100023.59;5097259;27;45356;-49
2021/06/21 04:10:11;;;;;;;;;8.00;6.00;;;;;22.26;61.51;100029.13;5092355;27;45224;-47
2021/06/21 04:12:37;;;;;;;;;6.00;6.00;;;;;22.26;61.92;100035.38;5086746;27;47265;-46
2021/06/21 04:15:08;;;;;;;;;6.00;6.00;;;;;22.25;62.04;100027.41;5088389;27;45415;-45
2021/06/21 04:17:35;;;;;;;;;7.00;7.00;;;;;22.24;61.30;100037.38;5099441;27;45360;-48
2021/06/21 04:20:01;;;;;;;;;6.67;6.67;;;;;22.20;61.66;100035.88;5098832;27;45482;-46
2021/06/21 04:22:27;;;;;;;;;6.33;6.33;;;;;22.18;61.51;100036.97;5085661;27;47928;-45
2021/06/21 04:24:52;;;;;;;;;4.00;4.00;;;;;22.15;61.44;100048.91;5097166;27;45348;-43
2021/06/21 04:27:18;;;;;;;;;6.67;6.67;;;;;22.13;61.51;100042.78;5114708;27;45539;-44
2021/06/21 04:29:43;;;;;;;;;7.00;6.00;;;;;22.10;61.69;100043.00;5095664;27;45494;-46
2021/06/21 04:32:09;;;;;;;;;6.00;6.00;;;;;22.07;61.37;100045.94;5090190;27;48399;-46
2021/06/21 04:34:35;;;;;;;;;6.00;6.00;;;;;22.10;61.79;100050.25;5084961;27;45333;-49
2021/06/21 04:37:00;;;;;;;;;6.67;6.67;;;;;22.12;62.29;100043.75;5099204;27;45362;-45
2021/06/21 04:39:26;;;;;;;;;6.33;6.33;;;;;22.14;61.67;100046.34;5097910;27;45396;-43
2021/06/21 04:41:51;;;;;;;;;7.00;7.00;;;;;22.13;62.13;100048.19;5087938;27;46949;-44
2021/06/21 04:44:17;;;;;;;;;7.00;6.00;;;;;22.15;62.22;100050.75;5099127;27;45436;-43
2021/06/21 04:46:42;;;;;;;;;6.33;5.33;;;;;22.15;61.26;100045.34;5092307;27;45301;-43
2021/06/21 04:49:12;;;;;;;;;9.67;7.00;;;;;22.14;61.39;100043.63;5098619;27;45319;-43
2021/06/21 04:51:41;;;;;;;;;8.33;8.33;;;;;22.12;61.73;100043.75;5083905;27;48421;-44
2021/06/21 04:54:07;;;;;;;;;6.00;6.00;;;;;22.13;61.51;100050.03;5083584;27;45837;-43
2021/06/21 04:56:37;;;;;;;;;5.67;5.67;;;;;22.14;62.12;100055.28;5098187;27;45349;-44
2021/06/21 04:59:04;;;;;;;;;6.33;5.00;;;;;22.15;62.15;100048.91;5098996;27;45659;-46
2021/06/21 05:01:30;;;;;;;;;6.00;6.00;;;;;22.19;62.28;100053.06;5091867;27;45492;-48
2021/06/21 05:04:01;;;;;;;;;6.67;6.67;;;;;22.25;62.21;100062.53;5090881;27;45888;-44
2021/06/21 05:06:28;;;;;;;;;7.33;6.33;;;;;22.31;62.17;100060.19;5090719;27;45470;-44
2021/06/21 05:08:53;;;;;;;;;5.00;5.00;;;;;22.36;61.90;100056.25;5080543;27;45690;-43
2021/06/21 05:11:20;;;;;;;;;7.00;7.00;;;;;22.37;61.77;100053.44;5084048;27;47227;-47
2021/06/21 05:13:45;;;;;;;;;5.33;5.33;;;;;22.41;61.37;100062.16;5084201;27;45380;-44
2021/06/21 05:16:11;;;;;;;;;7.00;7.00;;;;;22.43;61.35;100066.44;5085046;27;45400;-47
2021/06/21 05:18:37;;;;;;;;;7.00;7.00;;;;;22.47;61.42;100076.03;5094792;27;45637;-45
2021/06/21 05:21:04;;;;;;;;;8.00;7.00;;;;;22.50;61.27;100078.50;5094207;27;46793;-44
2021/06/21 05:23:29;;;;;;;;;6.00;6.00;;;;;22.53;61.42;100078.25;5093114;27;45380;-46
2021/06/21 05:25:55;;;;;;;;;6.33;6.33;;;;;22.55;61.02;100078.97;5079340;27;45706;-47
2021/06/21 05:28:20;;;;;;;;;7.00;7.00;;;;;22.57;61.03;100079.69;5090089;27;45678;-46
2021/06/21 05:30:46;;;;;;;;;6.67;6.67;;;;;22.60;61.17;100076.75;5083932;27;48388;-47
2021/06/21 05:33:13;;;;;;;;;9.00;8.00;;;;;22.64;60.89;100076.50;5087080;27;46045;-46
2021/06/21 05:35:39;;;;;;;;;8.00;8.00;;;;;22.67;60.43;100065.44;5099109;27;45323;-48
2021/06/21 05:38:04;;;;;;;;;8.00;7.33;;;;;22.69;60.50;100068.88;5088407;27;45668;-48
2021/06/21 05:40:30;;;;;;;;;7.00;7.00;;;;;22.68;60.20;100073.41;5090001;27;47219;-46
2021/06/21 05:42:55;;;;;;;;;7.33;7.00;;;;;22.68;60.40;100075.25;5082638;27;45733;-44
2021/06/21 05:45:21;;;;;;;;;8.67;8.67;;;;;22.70;60.12;100090.38;5089129;27;46334;-47
2021/06/21 05:47:46;;;;;;;;;6.67;5.67;;;;;22.68;60.54;100083.38;5089277;27;45548;-48
2021/06/21 05:50:12;;;;;;;;;11.00;11.00;;;;;22.68;60.12;100092.34;5089422;27;45410;-45
2021/06/21 05:52:38;;;;;;;;;6.00;6.00;;;;;22.68;60.53;100086.94;5085977;27;45572;-48
2021/06/21 05:55:05;;;;;;;;;6.00;6.00;;;;;22.71;60.05;100099.34;5087544;27;45778;-48
2021/06/21 05:57:30;;;;;;;;;9.00;8.00;;;;;22.73;60.31;100102.78;5089087;27;45426;-45
2021/06/21 05:59:56;;;;;;;;;7.00;6.67;;;;;22.74;59.92;100108.09;5088903;27;47815;-45
2021/06/21 06:02:22;;;;;;;;;8.33;8.33;;;;;22.76;59.68;100103.41;5089805;27;45501;-46
2021/06/21 06:04:47;;;;;;;;;6.00;6.00;;;;;22.78;59.74;100106.00;5084787;27;45878;-46
2021/06/21 06:07:13;;;;;;;;;6.33;6.33;;;;;22.79;59.70;100111.28;5089750;27;45481;-45
2021/06/21 06:09:39;;;;;;;;;9.00;8.00;;;;;22.81;59.79;100111.13;5090490;27;47644;-45
2021/06/21 06:12:05;;;;;;;;;8.00;8.00;;;;;22.83;59.63;100115.47;5084973;27;45487;-50
2021/06/21 06:14:32;;;;;;;;;8.00;8.00;;;;;22.84;59.38;100119.88;5087635;27;45456;-50
2021/06/21 06:16:58;;;;;;;;;5.00;5.00;;;;;22.85;59.58;100121.59;5092125;27;45383;-47
2021/06/21 06:19:24;;;;;;;;;10.00;10.00;;;;;22.85;59.30;100126.16;5092257;27;48208;-47
2021/06/21 06:21:49;;;;;;;;;7.00;7.00;;;;;22.85;58.91;100128.88;5086995;27;45474;-45
2021/06/21 06:24:15;;;;;;;;;7.00;7.00;;;;;22.87;59.59;100129.63;5087157;27;45583;-47
2021/06/21 06:26:43;;;;;;;;;8.33;8.33;;;;;22.90;59.19;100129.38;5087169;27;45314;-45
2021/06/21 06:29:10;;;;;;;;;6.00;6.00;;;;;22.92;59.12;100130.09;5085786;27;47351;-44
2021/06/21 06:31:36;;;;;;;;;8.33;8.33;;;;;22.95;59.31;100140.66;5090534;27;45279;-48
2021/06/21 06:34:02;;;;;;;;;6.00;6.00;;;;;22.98;58.44;100126.88;5083627;27;45553;-46
2021/06/21 06:36:28;;;;;;;;;7.00;7.00;;;;;23.01;58.91;100136.59;5080616;27;45614;-45
2021/06/21 06:38:53;;;;;;;;;6.00;5.25;;;;;23.05;58.91;100144.31;5093095;27;46272;-44
2021/06/21 06:41:19;;;;;;;;;6.50;6.50;;;;;23.07;58.09;100131.53;5086871;27;45515;-49
2021/06/21 06:43:45;;;;;;;;;6.25;6.25;;;;;23.09;58.16;100132.25;5094584;27;45932;-47
2021/06/21 06:46:10;;;;;;;;;9.67;6.67;;;;;23.10;57.97;100131.25;5087948;27;45659;-45
2021/06/21 06:48:36;;;;;;;;;6.00;5.67;;;;;23.10;58.13;100122.28;5091645;27;47188;-50
2021/06/21 06:51:01;;;;;;;;;7.50;7.50;;;;;23.05;58.06;100119.13;5087304;27;47304;-48
2021/06/21 06:53:37;;;;;;;;;6.00;6.00;;;;;23.00;57.95;100119.50;5093631;27;45576;-47
2021/06/21 06:58:47;;;;;;;;;7.00;7.00;;;;;23.14;58.54;100118.34;5091700;27;47195;-49
2021/06/21 07:01:12;;;;;;;;;6.33;6.33;;;;;23.22;57.60;100115.00;5085222;27;45849;-56
2021/06/21 07:03:40;;;;;;;;;5.67;5.67;;;;;23.27;57.71;100121.75;5086113;27;45475;-55
2021/06/21 07:06:05;;;;;;;;;6.00;6.00;;;;;23.34;57.43;100127.50;5092639;27;45813;-55
2021/06/21 07:08:32;;;;;;;;;6.67;6.33;;;;;23.39;57.09;100133.41;5088061;27;47343;-54
2021/06/21 07:10:58;;;;;;;;;7.00;7.00;;;;;23.40;56.60;100122.44;5091826;27;46385;-55
2021/06/21 07:13:23;;;;;;;;;5.67;5.00;;;;;23.42;56.95;100130.44;5091305;27;45532;-56
2021/06/21 07:15:49;;;;;;;;;6.00;6.00;;;;;23.43;56.80;100129.44;5088483;27;45360;-56
2021/06/21 07:18:15;;;;;;;;;6.67;5.67;;;;;23.45;56.39;100132.88;5093148;27;46418;-54
2021/06/21 07:20:40;;;;;;;;;7.00;7.00;;;;;23.46;56.09;100135.44;5089653;27;45494;-56
2021/06/21 07:23:06;;;;;;;;;7.00;6.00;;;;;23.51;55.96;100139.63;5100822;27;45328;-57
2021/06/21 07:25:32;;;;;;;;;6.67;6.67;;;;;23.54;55.98;100137.53;5095307;27;45667;-57
2021/06/21 07:27:58;;;;;;;;;7.00;7.00;;;;;23.58;55.55;100136.28;5093160;27;48381;-56
2021/06/21 07:30:24;;;;;;;;;7.00;7.00;;;;;23.62;55.83;100135.03;5096675;27;46075;-57
2021/06/21 07:32:50;;;;;;;;;6.67;6.67;;;;;23.61;55.25;100146.84;5088725;27;45297;-56
2021/06/21 07:35:16;;;;;;;;;7.33;6.33;;;;;23.60;55.76;100147.00;5091614;27;45652;-56
2021/06/21 07:37:41;;;;;;;;;8.00;8.00;;;;;23.62;55.78;100145.88;5088469;27;47675;-56
2021/06/21 07:40:08;;;;;;;;;8.00;8.00;;;;;23.65;55.47;100144.78;5086762;27;45458;-56
2021/06/21 07:42:33;;;;;;;;;7.33;7.33;;;;;23.69;55.35;100154.34;5088737;27;45402;-55
2021/06/21 07:44:59;;;;;;;;;7.67;7.67;;;;;23.70;55.17;100150.63;5105162;27;45475;-55
2021/06/21 07:47:24;;;;;;;;;4.67;4.67;;;;;23.71;55.20;100158.63;5090860;27;45289;-56
2021/06/21 07:49:50;;;;;;;;;7.33;6.00;;;;;23.71;54.98;100161.34;5085727;27;45757;-57
2021/06/21 07:52:16;;;;;;;;;8.00;7.67;;;;;23.76;55.19;100161.81;5087379;27;45333;-57
2021/06/21 07:54:42;;;;;;;;;7.33;7.33;;;;;23.79;55.20;100166.13;5086874;27;45521;-55
2021/06/21 07:57:08;;;;;;;;;6.67;5.00;;;;;23.82;54.82;100163.13;5086180;27;46216;-55
2021/06/21 07:59:33;;;;;;;;;5.33;5.33;;;;;23.81;54.40;100158.72;5088708;27;45482;-55
2021/06/21 08:01:59;;;;;;;;;8.00;8.00;;;;;23.81;54.77;100166.84;5094123;27;45619;-55
2021/06/21 08:04:24;;;;;;;;;6.67;5.33;;;;;23.79;54.39;100171.53;5103006;27;45649;-56
2021/06/21 08:06:50;;;;;;;;;5.67;4.67;;;;;23.75;53.73;100173.63;5089259;27;46845;-55
2021/06/21 08:09:15;;;;;;;;;5.00;5.00;;;;;23.67;53.81;100167.16;5086425;27;45984;-55
2021/06/21 08:11:41;;;;;;;;;4.00;4.00;;;;;23.62;53.82;100183.78;5092527;27;45402;-55
2021/06/21 08:14:06;;;;;;;;;5.00;5.00;;;;;23.58;53.84;100171.50;5091284;27;45911;-56
2021/06/21 08:16:32;;;;;;;;;7.67;6.67;;;;;23.58;54.11;100181.47;5085480;27;47224;-55
2021/06/21 08:18:58;;;;;;;;;4.67;4.67;;;;;23.56;53.92;100178.00;5087305;27;45388;-55
2021/06/21 08:21:24;;;;;;;;;3.67;3.67;;;;;23.54;53.82;100186.28;5097051;27;45452;-57
2021/06/21 08:23:50;;;;;;;;;5.00;5.00;;;;;23.50;53.42;100195.63;5087864;27;45405;-56
2021/06/21 08:26:15;;;;;;;;;3.67;3.67;;;;;23.45;52.64;100187.91;5084196;27;46789;-57
2021/06/21 08:28:41;;;;;;;;;3.00;3.00;;;;;23.42;52.21;100192.72;5086120;27;45623;-56
2021/06/21 08:31:06;;;;;;;;;3.00;3.00;;;;;23.37;51.64;100186.81;5088826;27;45625;-54
2021/06/21 08:33:32;;;;;;;;;2.00;2.00;;;;;23.34;51.57;100189.78;5083160;27;45652;-54
2021/06/21 08:35:57;;;;;;;;;2.67;2.67;;;;;23.34;51.40;100185.22;5085984;27;47665;-56
2021/06/21 08:38:23;;;;;;;;;2.00;2.00;;;;;23.33;51.15;100185.34;5084133;27;46035;-52
2021/06/21 08:40:49;;;;;;;;;2.67;2.67;;;;;23.33;51.38;100180.78;5090440;27;45464;-54
2021/06/21 08:43:14;;;;;;;;;5.67;4.00;;;;;23.32;51.57;100180.91;5093132;27;45702;-55
2021/06/21 08:45:41;;;;;;;;;5.33;4.33;;;;;23.33;51.08;100185.34;5087486;27;47642;-55
2021/06/21 08:48:09;;;;;;;;;1.67;1.67;;;;;23.32;51.14;100180.91;5087540;27;45404;-55
2021/06/21 08:50:37;;;;;;;;;3.00;3.00;;;;;23.31;51.45;100177.34;5098988;27;45647;-56
2021/06/21 08:53:03;;;;;;;;;3.00;3.00;;;;;23.30;50.73;100180.19;5089956;27;45518;-55
2021/06/21 08:55:28;;;;;;;;;1.67;1.67;;;;;23.31;51.04;100184.63;5080141;27;47371;-53
2021/06/21 08:57:54;;;;;;;;;2.00;2.00;;;;;23.31;50.88;100188.19;5079158;27;45880;-55
2021/06/21 09:00:22;;;;;;;;;1.00;1.00;;;;;23.32;50.29;100189.03;5080844;27;46120;-55
2021/06/21 09:02:48;;;;;;;;;1.67;1.67;;;;;23.29;50.32;100190.16;5101304;27;48417;-55
2021/06/21 09:05:14;;;;;;;;;2.33;2.33;;;;;23.27;49.95;100186.72;5110154;27;47543;-55
2021/06/21 09:07:40;;;;;;;;;1.00;1.00;;;;;23.25;49.40;100186.00;5082463;27;45578;-55
2021/06/21 09:10:20;;;;;;;;;3.67;2.33;;;;;23.24;49.30;100188.81;5093699;27;45641;-56
2021/06/21 09:12:46;;;;;;;;;4.33;4.00;;;;;23.22;49.33;100197.06;5094990;27;45734;-55
2021/06/21 09:15:12;;;;;;;;;1.00;1.00;;;;;23.19;49.50;100190.06;5092878;27;47260;-57
2021/06/21 09:17:39;;;;;;;;;2.00;2.00;;;;;23.18;48.83;100191.06;5093563;27;45368;-58
2021/06/21 09:20:10;;;;;;;;;3.00;3.00;;;;;23.17;48.76;100202.00;5088136;27;45337;-50
2021/06/21 09:22:38;;;;;;;;;3.00;1.00;;;;;23.16;49.27;100201.16;5082733;27;45612;-51
2021/06/21 09:25:04;;;;;;;;;1.67;1.67;;;;;23.18;49.04;100195.59;5090981;27;47730;-57
2021/06/21 09:27:30;;;;;;;;;2.00;2.00;;;;;23.20;48.56;100202.59;5080480;27;45393;-52
2021/06/21 09:29:55;;;;;;;;;1.00;1.00;;;;;23.20;48.63;100196.34;5101933;27;45448;-57
2021/06/21 09:32:41;;;;;;;;;1.33;1.00;;;;;23.23;49.59;100204.19;5092277;27;45744;-45
2021/06/21 09:35:12;;;;;;;;;1.00;1.00;;;;;23.28;49.11;100196.56;5097767;27;46962;-45
2021/06/21 09:37:46;;;;;;;;;3.00;1.67;;;;;23.33;48.93;100196.19;5083507;27;45392;-48
2021/06/21 09:40:27;;;;;;;;;2.67;2.00;;;;;23.37;48.33;100198.50;5097633;27;45336;-44
2021/06/21 09:42:53;;;;;;;;;2.00;2.00;;;;;23.41;47.99;100201.81;5079933;27;45518;-48
2021/06/21 09:45:18;;;;;;;;;1.00;1.00;;;;;23.43;48.58;100216.09;5080214;27;47924;-47
2021/06/21 09:47:44;;;;;;;;;1.33;1.33;;;;;23.47;47.92;100226.53;5083335;27;45363;-47
2021/06/21 09:50:23;;;;;;;;;1.00;1.00;;;;;23.53;47.25;100224.31;5099279;27;45538;-43
2021/06/21 09:52:53;;;;;;;;;0.33;0.33;;;;;23.55;47.47;100231.31;5085544;27;45307;-46
2021/06/21 09:55:30;;;;;;;;;1.00;1.00;;;;;23.58;46.98;100227.53;5089627;27;48045;-50
2021/06/21 09:58:05;;;;;;;;;1.33;0.67;;;;;23.62;46.86;100226.28;5090686;27;45955;-45
2021/06/21 10:00:30;;;;;;;;;0.67;0.67;;;;;23.68;46.92;100226.63;5091115;27;45309;-46
2021/06/21 10:03:15;;;;;;;;;2.00;2.00;;;;;23.77;46.84;100225.00;5084791;27;45583;-47
2021/06/21 10:05:44;;;;;;;;;1.00;1.00;;;;;23.89;46.60;100232.09;5102347;27;45474;-48
2021/06/21 10:08:13;;;;;;;;;1.00;1.00;;;;;23.99;46.60;100230.31;5095316;27;45357;-42
2021/06/21 10:10:40;;;;;;;;;1.33;1.33;;;;;24.11;46.28;100239.22;5087401;27;45382;-43
2021/06/21 10:13:06;;;;;;;;;1.00;1.00;;;;;24.21;45.45;100242.88;5082074;27;45571;-47
2021/06/21 10:15:34;;;;;;;;;1.67;1.67;;;;;24.32;46.33;100236.56;5077551;27;47213;-47
2021/06/21 10:18:02;;;;;;;;;1.33;0.67;;;;;24.41;45.48;100241.22;5109046;27;45629;-46
2021/06/21 10:20:27;;;;;;;;;0.67;0.67;;;;;24.50;45.19;100243.09;5096946;27;45560;-45
2021/06/21 10:22:54;;;;;;;;;1.00;1.00;;;;;24.58;44.74;100239.72;5096292;27;45426;-45
2021/06/21 10:25:21;;;;;;;;;1.00;1.00;;;;;24.67;44.68;100246.22;5097689;27;47194;-49
2021/06/21 10:27:47;;;;;;;;;1.00;0.33;;;;;24.73;44.38;100238.38;5087937;27;45345;-48
2021/06/21 10:30:19;;;;;;;;;1.00;1.00;;;;;24.80;44.27;100242.28;5081073;27;45387;-45
2021/06/21 10:32:49;;;;;;;;;1.00;1.00;;;;;24.89;44.02;100238.72;5091605;27;45561;-45
2021/06/21 10:35:15;;;;;;;;;0.67;0.67;;;;;24.96;43.54;100239.03;5086608;27;47165;-47
2021/06/21 10:37:55;;;;;;;;;1.33;1.33;;;;;25.00;43.62;100235.06;5096014;27;45455;-44
2021/06/21 10:40:22;;;;;;;;;0.67;0.67;;;;;25.05;43.83;100238.25;5087785;27;45660;-47
2021/06/21 10:42:47;;;;;;;;;3.00;3.00;;;;;25.10;43.93;100226.97;5078251;27;45368;-42
2021/06/21 10:45:19;;;;;;;;;2.33;2.33;;;;;25.20;43.97;100227.88;5082830;27;47392;-44
2021/06/21 10:47:46;;;;;;;;;0.67;0.67;;;;;25.28;43.85;100228.00;5091262;27;45833;-46
2021/06/21 10:50:21;;;;;;;;;2.00;1.67;;;;;25.35;43.44;100234.63;5089000;27;45753;-49
2021/06/21 10:52:50;;;;;;;;;0.67;0.67;;;;;25.42;43.21;100238.50;5080248;27;45703;-48
2021/06/21 10:55:25;;;;;;;;;2.00;2.00;;;;;25.48;43.46;100232.50;5091418;27;46653;-47
2021/06/21 10:57:54;;;;;;;;;0.33;0.33;;;;;25.53;42.97;100235.63;5078176;27;45298;-43
2021/06/21 11:00:22;;;;;;;;;2.00;2.00;;;;;25.57;42.79;100232.66;5078578;27;45352;-44
2021/06/21 11:02:48;;;;;;;;;2.00;1.33;;;;;25.58;42.68;100228.94;5077503;27;45550;-45
2021/06/21 11:05:37;;;;;;;;;2.33;1.33;;;;;25.63;42.83;100234.81;5088344;27;48165;-42
2021/06/21 11:08:17;;;;;;;;;0.67;0.67;;;;;25.67;42.93;100237.13;5093768;27;45378;-48
2021/06/21 11:10:45;;;;;;;;;2.00;1.67;;;;;25.71;42.75;100238.56;5082431;27;45432;-44
2021/06/21 11:16:24;;;;;;;;;2.00;2.00;;;;;25.71;42.70;100233.13;5076853;27;46973;-50
2021/06/21 11:19:21;;;;;;;;;1.67;1.67;;;;;25.67;41.90;100233.53;5085611;27;45402;-45
2021/06/21 11:21:58;;;;;;;;;1.00;1.00;;;;;25.61;41.92;100234.94;5085751;27;45719;-46
2021/06/21 11:24:36;;;;;;;;;2.00;2.00;;;;;25.55;41.91;100231.94;5088126;27;45424;-44
2021/06/21 11:27:07;;;;;;;;;0.33;0.33;;;;;25.49;41.78;100228.78;5090411;27;47407;-43
2021/06/21 11:29:35;;;;;;;;;0.33;0.33;;;;;25.43;42.06;100223.94;5090905;27;45821;-47
2021/06/21 11:32:03;;;;;;;;;2.00;0.67;;;;;25.39;42.31;100221.59;5097469;27;45644;-57
2021/06/21 11:35:02;;;;;;;;;0.67;0.67;;;;;25.32;42.40;100215.91;5089712;27;45527;-56
2021/06/21 11:37:47;;;;;;;;;1.00;0.67;;;;;25.26;41.79;100221.88;5090739;27;48191;-54